sensor_id;sensor_type;location;lat;lon;timestamp;temperature;humidity
16728;DHT22;8482;54.396;18.590;2022-09-09T00:02:03;17.40;94.30
16728;DHT22;8482;54.396;18.590;2022-09-09T00:04:38;17.30;94.30
16728;DHT22;8482;54.396;18.590;2022-09-09T00:07:17;17.30;94.40
16728;DHT22;8482;54.396;18.590;2022-09-09T00:16:00;17.30;94.60
16728;DHT22;8482;54.396;18.590;2022-09-09T00:18:44;17.20;94.70
16728;DHT22;8482;54.396;18.590;2022-09-09T00:21:18;17.20;94.80
16728;DHT22;8482;54.396;18.590;2022-09-09T00:23:51;17.20;94.80
16728;DHT22;8482;54.396;18.590;2022-09-09T00:27:04;17.20;94.80
16728;DHT22;8482;54.396;18.590;2022-09-09T00:29:28;17.20;94.80
16728;DHT22;8482;54.396;18.590;2022-09-09T00:32:16;17.20;94.80
16728;DHT22;8482;54.396;18.590;2022-09-09T00:34:53;17.20;94.80
16728;DHT22;8482;54.396;18.590;2022-09-09T00:37:24;17.10;94.70
16728;DHT22;8482;54.396;18.590;2022-09-09T00:39:54;17.10;94.70
16728;DHT22;8482;54.396;18.590;2022-09-09T00:42:41;17.10;94.70
16728;DHT22;8482;54.396;18.590;2022-09-09T00:47:46;17.10;94.50
16728;DHT22;8482;54.396;18.590;2022-09-09T00:50:29;17.10;94.40
16728;DHT22;8482;54.396;18.590;2022-09-09T00:56:18;17.10;94.30
16728;DHT22;8482;54.396;18.590;2022-09-09T01:02:19;17.10;94.30
16728;DHT22;8482;54.396;18.590;2022-09-09T01:04:52;17.20;94.20
16728;DHT22;8482;54.396;18.590;2022-09-09T01:07:18;17.10;94.10
16728;DHT22;8482;54.396;18.590;2022-09-09T01:10:03;17.20;94.10
16728;DHT22;8482;54.396;18.590;2022-09-09T01:12:42;17.20;94.10
16728;DHT22;8482;54.396;18.590;2022-09-09T01:15:33;17.10;94.00
16728;DHT22;8482;54.396;18.590;2022-09-09T01:18:12;17.20;94.00
16728;DHT22;8482;54.396;18.590;2022-09-09T01:21:04;17.10;93.90
16728;DHT22;8482;54.396;18.590;2022-09-09T01:27:02;17.10;93.80
16728;DHT22;8482;54.396;18.590;2022-09-09T01:29:32;17.20;93.90
16728;DHT22;8482;54.396;18.590;2022-09-09T01:32:01;17.10;93.80
16728;DHT22;8482;54.396;18.590;2022-09-09T01:34:47;17.10;93.90
16728;DHT22;8482;54.396;18.590;2022-09-09T01:37:13;17.20;93.90
16728;DHT22;8482;54.396;18.590;2022-09-09T01:39:42;17.20;93.90
16728;DHT22;8482;54.396;18.590;2022-09-09T01:42:13;17.10;94.20
16728;DHT22;8482;54.396;18.590;2022-09-09T01:44:41;17.20;93.90
16728;DHT22;8482;54.396;18.590;2022-09-09T01:47:07;17.10;93.80
16728;DHT22;8482;54.396;18.590;2022-09-09T01:49:33;17.20;93.80
16728;DHT22;8482;54.396;18.590;2022-09-09T01:51:59;17.20;93.90
16728;DHT22;8482;54.396;18.590;2022-09-09T01:54:28;17.10;93.80
16728;DHT22;8482;54.396;18.590;2022-09-09T02:00:06;17.20;94.00
16728;DHT22;8482;54.396;18.590;2022-09-09T02:03:11;17.10;93.90
16728;DHT22;8482;54.396;18.590;2022-09-09T02:08:48;17.10;94.20
16728;DHT22;8482;54.396;18.590;2022-09-09T02:11:22;17.10;93.90
16728;DHT22;8482;54.396;18.590;2022-09-09T02:14:02;17.10;93.90
16728;DHT22;8482;54.396;18.590;2022-09-09T02:16:55;17.10;93.90
16728;DHT22;8482;54.396;18.590;2022-09-09T02:19:39;17.10;93.90
16728;DHT22;8482;54.396;18.590;2022-09-09T02:22:11;17.10;94.00
16728;DHT22;8482;54.396;18.590;2022-09-09T02:24:39;17.10;94.10
16728;DHT22;8482;54.396;18.590;2022-09-09T02:27:08;17.10;94.10
16728;DHT22;8482;54.396;18.590;2022-09-09T02:29:38;17.10;94.20
16728;DHT22;8482;54.396;18.590;2022-09-09T02:32:11;17.10;94.20
16728;DHT22;8482;54.396;18.590;2022-09-09T02:34:43;17.10;94.10
16728;DHT22;8482;54.396;18.590;2022-09-09T02:37:15;17.10;94.20
16728;DHT22;8482;54.396;18.590;2022-09-09T02:39:44;17.10;94.20
16728;DHT22;8482;54.396;18.590;2022-09-09T02:42:10;17.00;94.10
16728;DHT22;8482;54.396;18.590;2022-09-09T02:44:36;17.00;94.10
16728;DHT22;8482;54.396;18.590;2022-09-09T02:58:08;17.00;94.20
16728;DHT22;8482;54.396;18.590;2022-09-09T03:00:38;17.00;94.20
16728;DHT22;8482;54.396;18.590;2022-09-09T03:03:05;17.00;94.10
16728;DHT22;8482;54.396;18.590;2022-09-09T03:05:32;17.00;94.10
16728;DHT22;8482;54.396;18.590;2022-09-09T03:07:58;17.00;94.10
16728;DHT22;8482;54.396;18.590;2022-09-09T03:10:24;17.00;94.20
16728;DHT22;8482;54.396;18.590;2022-09-09T03:12:50;17.00;94.60
16728;DHT22;8482;54.396;18.590;2022-09-09T03:15:16;17.00;95.10
16728;DHT22;8482;54.396;18.590;2022-09-09T03:17:42;17.00;95.90
16728;DHT22;8482;54.396;18.590;2022-09-09T03:20:08;16.90;96.60
16728;DHT22;8482;54.396;18.590;2022-09-09T03:22:34;16.90;97.30
16728;DHT22;8482;54.396;18.590;2022-09-09T03:25:00;16.90;97.60
16728;DHT22;8482;54.396;18.590;2022-09-09T03:27:28;16.90;98.20
16728;DHT22;8482;54.396;18.590;2022-09-09T03:29:54;16.80;98.70
16728;DHT22;8482;54.396;18.590;2022-09-09T03:32:21;16.80;99.50
16728;DHT22;8482;54.396;18.590;2022-09-09T03:34:48;16.70;99.90
16728;DHT22;8482;54.396;18.590;2022-09-09T03:37:16;16.70;99.90
16728;DHT22;8482;54.396;18.590;2022-09-09T03:39:43;16.60;99.90
16728;DHT22;8482;54.396;18.590;2022-09-09T03:42:09;16.50;99.90
16728;DHT22;8482;54.396;18.590;2022-09-09T03:44:39;16.50;99.90
16728;DHT22;8482;54.396;18.590;2022-09-09T03:47:07;16.40;99.90
16728;DHT22;8482;54.396;18.590;2022-09-09T03:49:33;16.30;99.90
16728;DHT22;8482;54.396;18.590;2022-09-09T03:51:59;16.20;99.90
16728;DHT22;8482;54.396;18.590;2022-09-09T03:54:26;16.20;99.90
16728;DHT22;8482;54.396;18.590;2022-09-09T03:56:53;16.10;99.90
16728;DHT22;8482;54.396;18.590;2022-09-09T03:59:19;16.00;99.90
16728;DHT22;8482;54.396;18.590;2022-09-09T04:01:45;16.00;99.90
16728;DHT22;8482;54.396;18.590;2022-09-09T04:04:12;15.80;99.90
16728;DHT22;8482;54.396;18.590;2022-09-09T04:06:38;15.80;99.90
16728;DHT22;8482;54.396;18.590;2022-09-09T04:09:04;15.70;99.90
16728;DHT22;8482;54.396;18.590;2022-09-09T04:11:30;15.70;99.90
16728;DHT22;8482;54.396;18.590;2022-09-09T04:13:55;15.70;99.90
16728;DHT22;8482;54.396;18.590;2022-09-09T04:16:21;15.60;99.90
16728;DHT22;8482;54.396;18.590;2022-09-09T04:18:47;15.50;99.90
16728;DHT22;8482;54.396;18.590;2022-09-09T04:21:13;15.50;99.90
16728;DHT22;8482;54.396;18.590;2022-09-09T04:23:40;15.40;99.90
16728;DHT22;8482;54.396;18.590;2022-09-09T04:26:06;15.40;99.90
16728;DHT22;8482;54.396;18.590;2022-09-09T04:28:34;15.40;99.90
16728;DHT22;8482;54.396;18.590;2022-09-09T04:31:09;15.30;99.90
16728;DHT22;8482;54.396;18.590;2022-09-09T04:33:40;15.30;99.90
16728;DHT22;8482;54.396;18.590;2022-09-09T04:36:06;15.30;99.90
16728;DHT22;8482;54.396;18.590;2022-09-09T04:38:32;15.20;99.90
16728;DHT22;8482;54.396;18.590;2022-09-09T04:40:58;15.20;99.90
16728;DHT22;8482;54.396;18.590;2022-09-09T04:43:24;15.20;99.90
16728;DHT22;8482;54.396;18.590;2022-09-09T04:45:52;15.10;99.90
16728;DHT22;8482;54.396;18.590;2022-09-09T04:48:19;15.10;99.90
16728;DHT22;8482;54.396;18.590;2022-09-09T04:51:00;15.10;99.90
16728;DHT22;8482;54.396;18.590;2022-09-09T04:53:28;15.00;99.90
16728;DHT22;8482;54.396;18.590;2022-09-09T04:56:08;15.00;99.90
16728;DHT22;8482;54.396;18.590;2022-09-09T04:58:39;15.00;99.90
16728;DHT22;8482;54.396;18.590;2022-09-09T05:01:14;15.00;99.90
16728;DHT22;8482;54.396;18.590;2022-09-09T05:03:43;15.00;99.90
16728;DHT22;8482;54.396;18.590;2022-09-09T05:06:13;14.90;99.90
16728;DHT22;8482;54.396;18.590;2022-09-09T05:08:42;14.90;99.90
16728;DHT22;8482;54.396;18.590;2022-09-09T05:11:23;14.90;99.90
16728;DHT22;8482;54.396;18.590;2022-09-09T05:13:50;14.90;99.90
16728;DHT22;8482;54.396;18.590;2022-09-09T05:16:17;14.90;99.90
16728;DHT22;8482;54.396;18.590;2022-09-09T05:18:44;14.90;99.90
16728;DHT22;8482;54.396;18.590;2022-09-09T05:21:16;14.90;99.90
16728;DHT22;8482;54.396;18.590;2022-09-09T05:23:42;14.90;99.90
16728;DHT22;8482;54.396;18.590;2022-09-09T05:26:13;14.80;99.90
16728;DHT22;8482;54.396;18.590;2022-09-09T05:28:40;14.80;99.90
16728;DHT22;8482;54.396;18.590;2022-09-09T05:31:08;14.80;99.90
16728;DHT22;8482;54.396;18.590;2022-09-09T05:33:37;14.80;99.90
16728;DHT22;8482;54.396;18.590;2022-09-09T05:36:07;14.80;99.90
16728;DHT22;8482;54.396;18.590;2022-09-09T05:38:36;14.80;99.90
16728;DHT22;8482;54.396;18.590;2022-09-09T05:41:03;14.80;99.90
16728;DHT22;8482;54.396;18.590;2022-09-09T05:43:29;14.80;99.90
16728;DHT22;8482;54.396;18.590;2022-09-09T05:46:08;14.80;99.90
16728;DHT22;8482;54.396;18.590;2022-09-09T05:48:37;14.80;99.90
16728;DHT22;8482;54.396;18.590;2022-09-09T05:51:06;14.80;99.90
16728;DHT22;8482;54.396;18.590;2022-09-09T05:53:34;14.70;99.90
16728;DHT22;8482;54.396;18.590;2022-09-09T05:56:08;14.70;99.90
16728;DHT22;8482;54.396;18.590;2022-09-09T05:58:39;14.70;99.90
16728;DHT22;8482;54.396;18.590;2022-09-09T06:01:14;14.70;99.90
16728;DHT22;8482;54.396;18.590;2022-09-09T06:03:44;14.70;99.90
16728;DHT22;8482;54.396;18.590;2022-09-09T06:06:16;14.70;99.90
16728;DHT22;8482;54.396;18.590;2022-09-09T06:08:46;14.60;99.90
16728;DHT22;8482;54.396;18.590;2022-09-09T06:11:23;14.60;99.90
16728;DHT22;8482;54.396;18.590;2022-09-09T06:13:52;14.60;99.90
16728;DHT22;8482;54.396;18.590;2022-09-09T06:16:21;14.60;99.90
16728;DHT22;8482;54.396;18.590;2022-09-09T06:18:49;14.60;99.90
16728;DHT22;8482;54.396;18.590;2022-09-09T06:21:18;14.50;99.90
16728;DHT22;8482;54.396;18.590;2022-09-09T06:23:45;14.50;99.90
16728;DHT22;8482;54.396;18.590;2022-09-09T06:26:18;14.50;99.90
16728;DHT22;8482;54.396;18.590;2022-09-09T06:28:50;14.50;99.90
16728;DHT22;8482;54.396;18.590;2022-09-09T06:31:20;14.50;99.90
16728;DHT22;8482;54.396;18.590;2022-09-09T06:33:49;14.50;99.90
16728;DHT22;8482;54.396;18.590;2022-09-09T06:36:25;14.50;99.90
16728;DHT22;8482;54.396;18.590;2022-09-09T06:38:53;14.40;99.90
16728;DHT22;8482;54.396;18.590;2022-09-09T06:41:20;14.40;99.90
16728;DHT22;8482;54.396;18.590;2022-09-09T06:43:48;14.40;99.90
16728;DHT22;8482;54.396;18.590;2022-09-09T06:46:18;14.40;99.90
16728;DHT22;8482;54.396;18.590;2022-09-09T06:48:48;14.40;99.90
16728;DHT22;8482;54.396;18.590;2022-09-09T06:51:17;14.30;99.90
16728;DHT22;8482;54.396;18.590;2022-09-09T06:53:46;14.30;99.90
16728;DHT22;8482;54.396;18.590;2022-09-09T06:58:41;14.30;99.90
16728;DHT22;8482;54.396;18.590;2022-09-09T07:01:14;14.30;99.90
16728;DHT22;8482;54.396;18.590;2022-09-09T07:03:42;14.30;99.90
16728;DHT22;8482;54.396;18.590;2022-09-09T07:06:15;14.30;99.90
16728;DHT22;8482;54.396;18.590;2022-09-09T07:08:52;14.20;99.90
16728;DHT22;8482;54.396;18.590;2022-09-09T07:11:26;14.20;99.90
16728;DHT22;8482;54.396;18.590;2022-09-09T07:13:57;14.30;99.90
16728;DHT22;8482;54.396;18.590;2022-09-09T07:16:24;14.20;99.90
16728;DHT22;8482;54.396;18.590;2022-09-09T07:18:53;14.20;99.90
16728;DHT22;8482;54.396;18.590;2022-09-09T07:21:27;14.20;99.90
16728;DHT22;8482;54.396;18.590;2022-09-09T07:23:54;14.20;99.90
16728;DHT22;8482;54.396;18.590;2022-09-09T07:26:23;14.20;99.90
16728;DHT22;8482;54.396;18.590;2022-09-09T07:28:51;14.20;99.90
16728;DHT22;8482;54.396;18.590;2022-09-09T07:31:19;14.20;99.90
16728;DHT22;8482;54.396;18.590;2022-09-09T07:33:47;14.20;99.90
16728;DHT22;8482;54.396;18.590;2022-09-09T07:36:15;14.20;99.90
16728;DHT22;8482;54.396;18.590;2022-09-09T07:38:46;14.20;99.90
16728;DHT22;8482;54.396;18.590;2022-09-09T07:41:23;14.20;99.90
16728;DHT22;8482;54.396;18.590;2022-09-09T07:44:07;14.20;99.90
16728;DHT22;8482;54.396;18.590;2022-09-09T07:46:36;14.20;99.90
16728;DHT22;8482;54.396;18.590;2022-09-09T07:49:04;14.20;99.90
16728;DHT22;8482;54.396;18.590;2022-09-09T07:51:32;14.20;99.90
16728;DHT22;8482;54.396;18.590;2022-09-09T07:54:08;14.20;99.90
16728;DHT22;8482;54.396;18.590;2022-09-09T07:56:37;14.20;99.90
16728;DHT22;8482;54.396;18.590;2022-09-09T07:59:04;14.20;99.90
16728;DHT22;8482;54.396;18.590;2022-09-09T08:01:36;14.20;99.90
16728;DHT22;8482;54.396;18.590;2022-09-09T08:04:10;14.20;99.90
16728;DHT22;8482;54.396;18.590;2022-09-09T08:06:42;14.20;99.90
16728;DHT22;8482;54.396;18.590;2022-09-09T08:09:10;14.20;99.90
16728;DHT22;8482;54.396;18.590;2022-09-09T08:11:37;14.20;99.90
16728;DHT22;8482;54.396;18.590;2022-09-09T08:14:04;14.20;99.90
16728;DHT22;8482;54.396;18.590;2022-09-09T08:16:35;14.20;99.90
16728;DHT22;8482;54.396;18.590;2022-09-09T08:19:04;14.20;99.90
16728;DHT22;8482;54.396;18.590;2022-09-09T08:21:33;14.20;99.90
16728;DHT22;8482;54.396;18.590;2022-09-09T08:24:02;14.10;99.90
16728;DHT22;8482;54.396;18.590;2022-09-09T08:26:34;14.10;99.90
16728;DHT22;8482;54.396;18.590;2022-09-09T08:29:04;14.10;99.90
16728;DHT22;8482;54.396;18.590;2022-09-09T08:34:23;14.20;99.90
16728;DHT22;8482;54.396;18.590;2022-09-09T08:36:51;14.10;99.90
16728;DHT22;8482;54.396;18.590;2022-09-09T08:39:19;14.10;99.90
16728;DHT22;8482;54.396;18.590;2022-09-09T08:42:13;14.10;99.90
16728;DHT22;8482;54.396;18.590;2022-09-09T08:50:56;14.10;99.90
16728;DHT22;8482;54.396;18.590;2022-09-09T08:53:29;14.10;99.90
16728;DHT22;8482;54.396;18.590;2022-09-09T08:56:24;14.10;99.90
16728;DHT22;8482;54.396;18.590;2022-09-09T08:58:56;14.10;99.90
16728;DHT22;8482;54.396;18.590;2022-09-09T09:10:31;14.10;99.90
16728;DHT22;8482;54.396;18.590;2022-09-09T09:13:17;14.10;99.90
16728;DHT22;8482;54.396;18.590;2022-09-09T09:16:02;14.10;99.90
16728;DHT22;8482;54.396;18.590;2022-09-09T09:18:35;14.10;99.90
16728;DHT22;8482;54.396;18.590;2022-09-09T09:21:19;14.10;99.90
16728;DHT22;8482;54.396;18.590;2022-09-09T09:23:58;14.10;99.90
16728;DHT22;8482;54.396;18.590;2022-09-09T09:26:34;14.10;99.90
16728;DHT22;8482;54.396;18.590;2022-09-09T09:29:21;14.20;99.90
16728;DHT22;8482;54.396;18.590;2022-09-09T09:31:55;14.10;99.90
16728;DHT22;8482;54.396;18.590;2022-09-09T09:34:25;14.20;99.90
16728;DHT22;8482;54.396;18.590;2022-09-09T09:36:59;14.20;99.90
16728;DHT22;8482;54.396;18.590;2022-09-09T09:39:29;14.20;99.90
16728;DHT22;8482;54.396;18.590;2022-09-09T09:41:56;14.20;99.90
16728;DHT22;8482;54.396;18.590;2022-09-09T09:44:32;14.20;99.90
16728;DHT22;8482;54.396;18.590;2022-09-09T09:47:12;14.20;99.90
16728;DHT22;8482;54.396;18.590;2022-09-09T09:49:54;14.30;99.90
16728;DHT22;8482;54.396;18.590;2022-09-09T09:52:33;14.20;99.90
16728;DHT22;8482;54.396;18.590;2022-09-09T09:55:04;14.30;99.90
16728;DHT22;8482;54.396;18.590;2022-09-09T09:57:38;14.30;99.90
16728;DHT22;8482;54.396;18.590;2022-09-09T10:00:30;14.30;99.90
16728;DHT22;8482;54.396;18.590;2022-09-09T10:02:59;14.30;99.90
16728;DHT22;8482;54.396;18.590;2022-09-09T10:05:28;14.30;99.90
16728;DHT22;8482;54.396;18.590;2022-09-09T10:08:05;14.30;99.90
16728;DHT22;8482;54.396;18.590;2022-09-09T10:13:46;14.30;99.90
16728;DHT22;8482;54.396;18.590;2022-09-09T10:19:32;14.30;99.90
16728;DHT22;8482;54.396;18.590;2022-09-09T10:28:42;14.40;99.90
16728;DHT22;8482;54.396;18.590;2022-09-09T10:31:43;14.30;99.90
16728;DHT22;8482;54.396;18.590;2022-09-09T10:37:05;14.40;99.90
16728;DHT22;8482;54.396;18.590;2022-09-09T10:39:50;14.40;99.90
16728;DHT22;8482;54.396;18.590;2022-09-09T10:42:31;14.40;99.90
16728;DHT22;8482;54.396;18.590;2022-09-09T10:45:20;14.50;99.90
16728;DHT22;8482;54.396;18.590;2022-09-09T10:48:11;14.50;99.90
16728;DHT22;8482;54.396;18.590;2022-09-09T10:57:02;14.50;99.90
16728;DHT22;8482;54.396;18.590;2022-09-09T10:59:47;14.60;99.90
16728;DHT22;8482;54.396;18.590;2022-09-09T11:02:22;14.50;99.90
16728;DHT22;8482;54.396;18.590;2022-09-09T11:05:19;14.50;99.90
16728;DHT22;8482;54.396;18.590;2022-09-09T11:08:08;14.50;99.90
16728;DHT22;8482;54.396;18.590;2022-09-09T11:10:51;14.60;99.90
16728;DHT22;8482;54.396;18.590;2022-09-09T11:21:50;14.70;99.90
16728;DHT22;8482;54.396;18.590;2022-09-09T11:24:36;14.70;99.90
16728;DHT22;8482;54.396;18.590;2022-09-09T11:27:17;14.70;99.90
16728;DHT22;8482;54.396;18.590;2022-09-09T11:29:46;14.70;99.90
16728;DHT22;8482;54.396;18.590;2022-09-09T11:32:53;14.70;99.90
16728;DHT22;8482;54.396;18.590;2022-09-09T11:35:39;14.80;99.90
16728;DHT22;8482;54.396;18.590;2022-09-09T11:44:37;14.80;99.90
16728;DHT22;8482;54.396;18.590;2022-09-09T11:47:03;14.80;99.90
16728;DHT22;8482;54.396;18.590;2022-09-09T11:49:40;14.80;99.90
16728;DHT22;8482;54.396;18.590;2022-09-09T11:52:38;14.90;99.90
16728;DHT22;8482;54.396;18.590;2022-09-09T11:55:32;14.90;99.90
16728;DHT22;8482;54.396;18.590;2022-09-09T11:58:01;14.90;99.90
16728;DHT22;8482;54.396;18.590;2022-09-09T12:08:52;14.90;99.90
16728;DHT22;8482;54.396;18.590;2022-09-09T12:11:29;14.90;99.90
16728;DHT22;8482;54.396;18.590;2022-09-09T12:13:58;14.90;99.90
16728;DHT22;8482;54.396;18.590;2022-09-09T12:16:38;14.90;99.90
16728;DHT22;8482;54.396;18.590;2022-09-09T12:22:04;14.80;99.90
16728;DHT22;8482;54.396;18.590;2022-09-09T12:31:14;14.80;99.90
16728;DHT22;8482;54.396;18.590;2022-09-09T12:33:48;14.90;99.90
16728;DHT22;8482;54.396;18.590;2022-09-09T12:36:18;14.90;99.90
16728;DHT22;8482;54.396;18.590;2022-09-09T12:38:48;14.90;99.90
16728;DHT22;8482;54.396;18.590;2022-09-09T12:41:26;14.90;99.90
16728;DHT22;8482;54.396;18.590;2022-09-09T12:44:04;14.90;99.90
16728;DHT22;8482;54.396;18.590;2022-09-09T12:46:44;14.90;99.90
16728;DHT22;8482;54.396;18.590;2022-09-09T12:49:40;14.90;99.90
16728;DHT22;8482;54.396;18.590;2022-09-09T12:52:14;14.90;99.90
16728;DHT22;8482;54.396;18.590;2022-09-09T12:55:17;14.90;99.90
16728;DHT22;8482;54.396;18.590;2022-09-09T12:57:44;14.90;99.90
16728;DHT22;8482;54.396;18.590;2022-09-09T13:00:19;14.90;99.90
16728;DHT22;8482;54.396;18.590;2022-09-09T13:02:59;14.90;99.90
16728;DHT22;8482;54.396;18.590;2022-09-09T13:05:40;14.90;99.90
16728;DHT22;8482;54.396;18.590;2022-09-09T13:08:13;14.90;99.90
16728;DHT22;8482;54.396;18.590;2022-09-09T13:10:48;14.90;99.90
16728;DHT22;8482;54.396;18.590;2022-09-09T13:13:36;14.90;99.90
16728;DHT22;8482;54.396;18.590;2022-09-09T13:16:06;14.90;99.90
16728;DHT22;8482;54.396;18.590;2022-09-09T13:18:44;15.00;99.90
16728;DHT22;8482;54.396;18.590;2022-09-09T13:21:10;15.00;99.90
16728;DHT22;8482;54.396;18.590;2022-09-09T13:23:37;15.00;99.90
16728;DHT22;8482;54.396;18.590;2022-09-09T13:26:05;15.00;99.90
16728;DHT22;8482;54.396;18.590;2022-09-09T13:28:49;15.00;99.90
16728;DHT22;8482;54.396;18.590;2022-09-09T13:31:27;15.00;99.90
16728;DHT22;8482;54.396;18.590;2022-09-09T13:33:55;15.00;99.90
16728;DHT22;8482;54.396;18.590;2022-09-09T13:36:29;15.00;99.90
16728;DHT22;8482;54.396;18.590;2022-09-09T13:38:58;15.00;99.90
16728;DHT22;8482;54.396;18.590;2022-09-09T13:41:31;15.00;99.90
16728;DHT22;8482;54.396;18.590;2022-09-09T13:44:01;15.00;99.90
16728;DHT22;8482;54.396;18.590;2022-09-09T13:46:40;15.00;99.90
16728;DHT22;8482;54.396;18.590;2022-09-09T13:51:41;15.00;99.90
16728;DHT22;8482;54.396;18.590;2022-09-09T13:54:13;15.00;99.90
16728;DHT22;8482;54.396;18.590;2022-09-09T13:56:42;15.00;99.90
16728;DHT22;8482;54.396;18.590;2022-09-09T13:59:14;15.00;99.90
16728;DHT22;8482;54.396;18.590;2022-09-09T14:01:42;15.00;99.90
16728;DHT22;8482;54.396;18.590;2022-09-09T14:04:09;15.00;99.90
16728;DHT22;8482;54.396;18.590;2022-09-09T14:06:36;15.00;99.90
16728;DHT22;8482;54.396;18.590;2022-09-09T14:09:04;15.00;99.90
16728;DHT22;8482;54.396;18.590;2022-09-09T14:11:31;15.00;99.90
16728;DHT22;8482;54.396;18.590;2022-09-09T14:13:57;15.00;99.90
16728;DHT22;8482;54.396;18.590;2022-09-09T14:16:23;15.00;99.90
16728;DHT22;8482;54.396;18.590;2022-09-09T14:18:48;15.00;99.90
16728;DHT22;8482;54.396;18.590;2022-09-09T14:21:14;15.00;99.90
16728;DHT22;8482;54.396;18.590;2022-09-09T14:23:43;15.00;99.90
16728;DHT22;8482;54.396;18.590;2022-09-09T14:26:15;15.00;99.90
16728;DHT22;8482;54.396;18.590;2022-09-09T14:28:41;15.00;99.90
16728;DHT22;8482;54.396;18.590;2022-09-09T14:31:11;15.00;99.90
16728;DHT22;8482;54.396;18.590;2022-09-09T14:33:38;15.00;99.90
16728;DHT22;8482;54.396;18.590;2022-09-09T14:36:06;15.00;99.90
16728;DHT22;8482;54.396;18.590;2022-09-09T14:38:36;15.00;99.90
16728;DHT22;8482;54.396;18.590;2022-09-09T14:41:15;15.00;99.90
16728;DHT22;8482;54.396;18.590;2022-09-09T14:43:44;15.00;99.90
16728;DHT22;8482;54.396;18.590;2022-09-09T14:46:18;15.00;99.90
16728;DHT22;8482;54.396;18.590;2022-09-09T14:48:46;15.00;99.90
16728;DHT22;8482;54.396;18.590;2022-09-09T14:51:21;15.00;99.90
16728;DHT22;8482;54.396;18.590;2022-09-09T14:53:52;15.00;99.90
16728;DHT22;8482;54.396;18.590;2022-09-09T14:56:22;15.00;99.90
16728;DHT22;8482;54.396;18.590;2022-09-09T14:58:50;15.00;99.90
16728;DHT22;8482;54.396;18.590;2022-09-09T15:01:19;15.00;99.90
16728;DHT22;8482;54.396;18.590;2022-09-09T15:03:54;15.00;99.90
16728;DHT22;8482;54.396;18.590;2022-09-09T15:06:24;15.00;99.90
16728;DHT22;8482;54.396;18.590;2022-09-09T15:08:52;15.00;99.90
16728;DHT22;8482;54.396;18.590;2022-09-09T15:11:20;15.00;99.90
16728;DHT22;8482;54.396;18.590;2022-09-09T15:13:51;15.00;99.90
16728;DHT22;8482;54.396;18.590;2022-09-09T15:16:19;15.00;99.90
16728;DHT22;8482;54.396;18.590;2022-09-09T15:18:46;15.00;99.90
16728;DHT22;8482;54.396;18.590;2022-09-09T15:21:17;15.00;99.90
16728;DHT22;8482;54.396;18.590;2022-09-09T15:23:45;15.00;99.90
16728;DHT22;8482;54.396;18.590;2022-09-09T15:26:11;15.00;99.90
16728;DHT22;8482;54.396;18.590;2022-09-09T15:28:39;15.00;99.90
16728;DHT22;8482;54.396;18.590;2022-09-09T15:31:26;15.00;99.90
16728;DHT22;8482;54.396;18.590;2022-09-09T15:33:59;15.00;99.90
16728;DHT22;8482;54.396;18.590;2022-09-09T15:38:55;15.00;99.90
16728;DHT22;8482;54.396;18.590;2022-09-09T15:41:22;15.00;99.90
16728;DHT22;8482;54.396;18.590;2022-09-09T15:43:50;15.00;99.90
16728;DHT22;8482;54.396;18.590;2022-09-09T15:49:24;15.00;99.90
16728;DHT22;8482;54.396;18.590;2022-09-09T15:51:57;15.00;99.90
16728;DHT22;8482;54.396;18.590;2022-09-09T15:54:35;15.00;99.90
16728;DHT22;8482;54.396;18.590;2022-09-09T15:57:05;15.00;99.90
16728;DHT22;8482;54.396;18.590;2022-09-09T15:59:32;15.00;99.90
16728;DHT22;8482;54.396;18.590;2022-09-09T16:01:59;15.00;99.90
16728;DHT22;8482;54.396;18.590;2022-09-09T16:04:26;15.00;99.90
16728;DHT22;8482;54.396;18.590;2022-09-09T16:06:57;15.00;99.90
16728;DHT22;8482;54.396;18.590;2022-09-09T16:09:26;15.00;99.90
16728;DHT22;8482;54.396;18.590;2022-09-09T16:11:55;15.00;99.90
16728;DHT22;8482;54.396;18.590;2022-09-09T16:14:23;15.00;99.90
16728;DHT22;8482;54.396;18.590;2022-09-09T16:16:50;15.00;99.90
16728;DHT22;8482;54.396;18.590;2022-09-09T16:19:16;15.00;99.90
16728;DHT22;8482;54.396;18.590;2022-09-09T16:21:47;15.10;99.90
16728;DHT22;8482;54.396;18.590;2022-09-09T16:24:17;15.10;99.90
16728;DHT22;8482;54.396;18.590;2022-09-09T16:26:48;15.10;99.90
16728;DHT22;8482;54.396;18.590;2022-09-09T16:29:16;15.10;99.90
16728;DHT22;8482;54.396;18.590;2022-09-09T16:31:44;15.10;99.90
16728;DHT22;8482;54.396;18.590;2022-09-09T16:34:12;15.10;99.90
16728;DHT22;8482;54.396;18.590;2022-09-09T16:36:43;15.10;99.90
16728;DHT22;8482;54.396;18.590;2022-09-09T16:39:15;15.10;99.90
16728;DHT22;8482;54.396;18.590;2022-09-09T16:41:44;15.10;99.90
16728;DHT22;8482;54.396;18.590;2022-09-09T16:44:12;15.10;99.90
16728;DHT22;8482;54.396;18.590;2022-09-09T16:46:40;15.10;99.90
16728;DHT22;8482;54.396;18.590;2022-09-09T16:49:10;15.10;99.90
16728;DHT22;8482;54.396;18.590;2022-09-09T16:51:46;15.10;99.90
16728;DHT22;8482;54.396;18.590;2022-09-09T16:54:15;15.10;99.90
16728;DHT22;8482;54.396;18.590;2022-09-09T16:56:44;15.10;99.90
16728;DHT22;8482;54.396;18.590;2022-09-09T16:59:14;15.10;99.90
16728;DHT22;8482;54.396;18.590;2022-09-09T17:01:46;15.10;99.90
16728;DHT22;8482;54.396;18.590;2022-09-09T17:04:18;15.10;99.90
16728;DHT22;8482;54.396;18.590;2022-09-09T17:06:50;15.10;99.90
16728;DHT22;8482;54.396;18.590;2022-09-09T17:09:18;15.10;99.90
16728;DHT22;8482;54.396;18.590;2022-09-09T17:11:45;15.10;99.90
16728;DHT22;8482;54.396;18.590;2022-09-09T17:14:15;15.10;99.90
16728;DHT22;8482;54.396;18.590;2022-09-09T17:16:42;15.10;99.90
16728;DHT22;8482;54.396;18.590;2022-09-09T17:19:09;15.10;99.90
16728;DHT22;8482;54.396;18.590;2022-09-09T17:21:36;15.10;99.90
16728;DHT22;8482;54.396;18.590;2022-09-09T17:24:03;15.10;99.90
16728;DHT22;8482;54.396;18.590;2022-09-09T17:26:31;15.10;99.90
16728;DHT22;8482;54.396;18.590;2022-09-09T17:29:01;15.10;99.90
16728;DHT22;8482;54.396;18.590;2022-09-09T17:31:29;15.10;99.90
16728;DHT22;8482;54.396;18.590;2022-09-09T17:33:58;15.10;99.90
16728;DHT22;8482;54.396;18.590;2022-09-09T17:36:32;15.10;99.90
16728;DHT22;8482;54.396;18.590;2022-09-09T17:39:00;15.10;99.90
16728;DHT22;8482;54.396;18.590;2022-09-09T17:41:32;15.20;99.90
16728;DHT22;8482;54.396;18.590;2022-09-09T17:44:04;15.20;99.90
16728;DHT22;8482;54.396;18.590;2022-09-09T17:46:38;15.20;99.90
16728;DHT22;8482;54.396;18.590;2022-09-09T17:49:09;15.10;99.90
16728;DHT22;8482;54.396;18.590;2022-09-09T17:51:41;15.20;99.90
16728;DHT22;8482;54.396;18.590;2022-09-09T17:54:13;15.20;99.90
16728;DHT22;8482;54.396;18.590;2022-09-09T17:56:42;15.20;99.90
16728;DHT22;8482;54.396;18.590;2022-09-09T17:59:12;15.20;99.90
16728;DHT22;8482;54.396;18.590;2022-09-09T18:01:41;15.20;99.90